createdAt,value
2023-05-15T05:57:31.830Z,1.65
2023-05-15T05:59:59.263Z,1.83
2023-05-15T06:02:27.218Z,1.90
2023-05-15T06:04:54.286Z,1.80
2023-05-15T06:07:21.735Z,1.70
2023-05-15T06:09:48.839Z,1.70
2023-05-15T06:12:15.806Z,1.70
2023-05-15T06:14:42.800Z,1.98
2023-05-15T06:17:09.820Z,1.70
2023-05-15T06:19:36.920Z,1.42
2023-05-15T06:22:03.957Z,1.60
2023-05-15T06:24:30.979Z,1.45
2023-05-15T17:22:09.298Z,7.10
2023-05-15T17:24:50.059Z,7.35
2023-05-15T17:27:19.481Z,7.60
2023-05-15T17:29:46.967Z,7.25
2023-05-15T17:32:14.150Z,7.93
2023-05-15T17:34:41.210Z,7.82
2023-05-15T17:37:08.975Z,7.03
2023-05-15T17:39:35.904Z,6.60
2023-05-15T17:42:03.330Z,6.97
2023-05-15T17:44:31.246Z,6.97
2023-05-15T17:46:58.565Z,7.50
2023-05-15T17:49:26.239Z,7.53
2023-05-15T17:51:53.948Z,8.10
2023-05-15T17:54:20.967Z,7.68
2023-05-15T17:56:48.444Z,8.10
2023-05-15T17:59:15.620Z,8.02
2023-05-15T18:01:42.719Z,8.00
2023-05-15T18:04:10.154Z,7.93
2023-05-15T18:06:37.346Z,7.30
2023-05-15T18:09:05.174Z,7.30
2023-05-15T18:11:32.323Z,8.35
2023-05-15T18:13:59.586Z,8.55
2023-05-15T18:16:27.079Z,8.98
2023-05-15T18:18:54.169Z,9.15
2023-05-15T18:21:21.224Z,8.68
2023-05-15T18:23:48.171Z,9.82
2023-05-15T18:26:15.260Z,9.40
2023-05-15T18:28:42.309Z,8.45
2023-05-15T18:31:09.451Z,7.68
2023-05-15T18:33:36.489Z,8.50
2023-05-15T18:36:05.971Z,7.63
2023-05-15T18:38:34.465Z,8.40
2023-05-15T18:41:01.431Z,7.55
2023-05-15T18:43:28.687Z,7.13
2023-05-15T18:45:55.664Z,5.65
2023-05-15T18:48:22.580Z,5.72
2023-05-15T18:50:49.568Z,5.10
2023-05-15T18:53:16.533Z,5.43
2023-05-15T18:55:43.441Z,5.53
2023-05-15T18:58:10.366Z,4.40
2023-05-15T19:00:39.228Z,4.35
2023-05-15T19:03:08.443Z,3.75
2023-05-15T19:05:36.118Z,3.78
2023-05-15T19:08:03.931Z,3.28
2023-05-15T19:10:30.950Z,3.80
2023-05-15T19:12:58.500Z,3.08
2023-05-15T19:15:25.964Z,2.67
2023-05-15T19:17:53.406Z,2.70
2023-05-15T19:20:20.939Z,2.60
2023-05-15T19:22:47.981Z,2.60
2023-05-15T19:25:14.933Z,2.85
2023-05-15T19:27:42.031Z,2.55
2023-05-15T19:30:10.007Z,2.80
2023-05-15T19:32:37.755Z,2.42
2023-05-15T19:35:05.554Z,2.72
2023-05-15T19:37:32.550Z,2.10
2023-05-15T19:39:59.439Z,2.13
2023-05-15T19:42:26.521Z,2.35
2023-05-15T19:44:53.629Z,2.03
2023-05-15T19:47:20.716Z,2.20
2023-05-15T19:49:47.836Z,1.67
2023-05-15T19:52:16.009Z,2.20
2023-05-15T19:54:43.027Z,2.53
2023-05-15T19:57:10.757Z,2.45
2023-05-15T19:59:37.977Z,2.40
2023-05-15T20:02:09.264Z,2.42
2023-05-15T20:04:37.095Z,2.00
2023-05-15T20:07:04.433Z,2.38
2023-05-15T20:09:31.405Z,1.92
2023-05-15T20:11:58.835Z,2.60
2023-05-15T20:14:25.757Z,2.22
2023-05-15T20:16:52.647Z,2.10
2023-05-15T20:19:22.345Z,2.15
2023-05-15T20:21:49.913Z,2.10
2023-05-15T20:24:17.894Z,2.28
2023-05-15T20:26:45.394Z,1.90
2023-05-15T20:29:12.352Z,2.45
2023-05-15T20:31:40.559Z,1.90
2023-05-15T20:34:08.185Z,2.63
2023-05-15T20:36:35.974Z,1.85
2023-05-15T20:39:05.920Z,1.92
2023-05-15T20:41:37.116Z,2.10
2023-05-15T20:44:04.378Z,1.90
2023-05-15T20:46:32.018Z,1.95
2023-05-15T20:48:59.054Z,2.13
2023-05-15T20:51:25.963Z,1.75
2023-05-15T20:53:52.867Z,2.38
2023-05-15T20:56:19.815Z,1.80
2023-05-15T20:58:46.738Z,1.80
2023-05-15T21:01:13.719Z,1.98
2023-05-15T21:03:41.011Z,1.80
2023-05-15T21:06:08.804Z,2.00
2023-05-15T21:08:35.965Z,1.95
2023-05-15T21:11:02.921Z,1.58
2023-05-15T21:13:29.895Z,1.70
2023-05-15T21:15:56.957Z,1.60
2023-05-15T21:18:23.941Z,1.60
2023-05-15T21:20:50.898Z,1.58
2023-05-15T21:23:18.250Z,1.63
2023-05-15T21:25:45.317Z,1.63
2023-05-15T21:28:12.310Z,1.98
2023-05-15T21:30:39.322Z,1.58
2023-05-15T21:33:06.317Z,1.40
2023-05-15T21:35:33.269Z,1.60
2023-05-15T21:38:00.395Z,1.63
2023-05-15T21:40:27.523Z,1.30
2023-05-15T21:42:54.688Z,1.60
2023-05-15T21:45:21.638Z,1.45
2023-05-15T21:47:48.679Z,1.38
2023-05-15T21:50:15.735Z,1.52
2023-05-15T21:52:42.623Z,1.50
2023-05-15T21:55:09.774Z,1.52
2023-05-15T21:57:36.677Z,1.40
2023-05-15T22:00:06.810Z,1.27
2023-05-15T22:02:33.918Z,1.33
2023-05-15T22:05:00.865Z,1.67
2023-05-15T22:07:27.913Z,1.80
2023-05-15T22:09:54.923Z,1.42
2023-05-15T22:12:22.060Z,2.00
2023-05-15T22:14:58.574Z,1.30
2023-05-15T22:17:29.197Z,1.63
2023-05-15T22:20:06.618Z,1.38
2023-05-15T22:22:35.481Z,1.50
2023-05-15T22:25:02.526Z,1.73
2023-05-15T22:27:29.541Z,1.58
2023-05-15T22:29:56.541Z,1.80
2023-05-15T22:32:23.877Z,1.45
2023-05-15T22:34:50.891Z,1.20
2023-05-15T22:37:17.995Z,1.20
2023-05-15T22:39:44.969Z,1.67
2023-05-15T22:42:11.866Z,1.23
2023-05-15T22:44:38.808Z,1.60
2023-05-15T22:47:06.033Z,1.10
2023-05-15T22:49:33.081Z,0.90
2023-05-15T22:52:00.037Z,1.00
2023-05-15T22:54:26.935Z,1.23
2023-05-15T22:56:54.355Z,1.17
2023-05-15T22:59:21.560Z,1.10
2023-05-15T23:01:50.403Z,1.10
2023-05-15T23:04:17.659Z,1.35
2023-05-15T23:06:44.906Z,0.95
2023-05-15T23:09:11.891Z,1.05
2023-05-15T23:11:38.925Z,1.42
2023-05-15T23:14:06.785Z,1.23
2023-05-15T23:16:33.867Z,1.27
2023-05-15T23:19:00.854Z,1.45
2023-05-15T23:21:28.513Z,1.20
2023-05-15T23:23:55.655Z,1.05
2023-05-15T23:26:22.629Z,1.27
2023-05-15T23:28:50.166Z,1.38
2023-05-15T23:31:17.439Z,1.52
2023-05-15T23:33:44.493Z,1.50
2023-05-15T23:36:11.376Z,1.10
2023-05-15T23:38:38.354Z,0.90
2023-05-15T23:41:05.537Z,1.17
2023-05-15T23:43:32.581Z,1.30
2023-05-15T23:45:59.569Z,1.60
2023-05-15T23:48:26.549Z,1.40
2023-05-15T23:50:54.636Z,1.15
2023-05-15T23:53:21.609Z,1.25
2023-05-15T23:55:48.707Z,1.40
2023-05-15T23:58:15.823Z,1.30
